Time;durP1;ratioP1;P1;durP2;ratioP2;P2;SDS_P1;SDS_P2;PMS_P1;PMS_P2;Temp;Humidity;BMP_temperature;BMP_pressure;BME280_temperature;BME280_humidity;BME280_pressure;Samples;Min_cycle;Max_cycle;Signal;HPM_P1;HPM_P2
2021/04/28 00:02:18;;;;;;;29.33;15.30;;;;;;;5.78;50.85;100588.63;5080793;57;1138701;-75
2021/04/28 00:07:24;;;;;;;46.23;24.60;;;;;;;5.78;50.59;100586.00;5080841;57;1138570;-73
2021/04/28 00:12:29;;;;;;;19.73;10.13;;;;;;;5.77;50.48;100589.56;5080629;57;1138533;-73
2021/04/28 00:17:35;;;;;;;20.57;10.73;;;;;;;5.79;50.42;100580.29;5080901;57;1138789;-74
2021/04/28 00:22:41;;;;;;;18.40;8.83;;;;;;;5.80;50.31;100576.73;5081562;57;1138863;-74
2021/04/28 00:27:47;;;;;;;17.90;8.57;;;;;;;5.79;50.17;100565.39;5082163;57;1136541;-73
2021/04/28 00:32:52;;;;;;;12.30;7.17;;;;;;;5.77;50.01;100559.84;5082235;57;1136492;-74
2021/04/28 00:37:58;;;;;;;19.80;8.47;;;;;;;5.77;49.88;100566.41;5081885;57;1136445;-74
2021/04/28 00:43:05;;;;;;;16.07;8.03;;;;;;;5.72;49.73;100563.19;5081899;57;1136537;-75
2021/04/28 00:48:12;;;;;;;24.20;9.50;;;;;;;5.69;49.73;100569.45;5081986;57;1136488;-74
2021/04/28 00:53:22;;;;;;;23.77;10.13;;;;;;;5.64;49.59;100558.39;5081681;57;1136705;-73
2021/04/28 00:58:29;;;;;;;33.23;13.60;;;;;;;5.60;49.58;100564.27;5081078;57;1138815;-73
2021/04/28 01:03:36;;;;;;;24.40;9.27;;;;;;;5.60;49.65;100561.64;5081338;57;1138726;-74
2021/04/28 01:08:42;;;;;;;23.40;10.48;;;;;;;5.59;49.61;100565.20;5081623;57;1136692;-73
2021/04/28 01:13:48;;;;;;;25.08;11.10;;;;;;;5.58;49.64;100558.72;5081542;57;1138747;-75
2021/04/28 01:18:55;;;;;;;20.45;9.48;;;;;;;5.56;49.67;100556.65;5081466;57;1138842;-73
2021/04/28 01:24:01;;;;;;;30.83;12.23;;;;;;;5.51;49.75;100560.83;5081310;57;1136768;-74
2021/04/28 01:29:07;;;;;;;22.30;10.78;;;;;;;5.44;49.81;100551.63;5080929;57;1139029;-74
2021/04/28 01:34:14;;;;;;;23.50;9.33;;;;;;;5.40;49.90;100545.31;5081051;57;1138730;-73
2021/04/28 01:39:20;;;;;;;23.33;8.80;;;;;;;5.36;49.93;100538.08;5081448;57;1136759;-73
2021/04/28 01:44:26;;;;;;;21.45;10.15;;;;;;;5.26;49.98;100537.76;5081774;57;1136680;-73
2021/04/28 01:49:33;;;;;;;19.33;10.17;;;;;;;5.19;50.12;100526.40;5081722;57;1138777;-73
2021/04/28 01:54:40;;;;;;;23.15;10.40;;;;;;;5.16;50.21;100522.63;5095477;57;1139025;-74
2021/04/28 01:59:48;;;;;;;21.33;9.68;;;;;;;5.13;50.40;100522.33;5081999;57;1138887;-72
2021/04/28 02:05:12;;;;;;;27.70;10.63;;;;;;;5.07;50.34;100512.17;5081661;57;1136449;-72
2021/04/28 02:10:19;;;;;;;24.73;10.23;;;;;;;5.00;50.22;100509.98;5081448;57;1138487;-72
2021/04/28 02:15:28;;;;;;;47.63;20.50;;;;;;;4.99;50.25;100506.98;5081441;57;1138778;-74
2021/04/28 02:20:36;;;;;;;42.30;18.17;;;;;;;4.94;50.21;100504.59;5081061;57;1138598;-74
2021/04/28 02:25:46;;;;;;;28.40;14.78;;;;;;;4.91;50.22;100508.69;5075790;57;1138751;-73
2021/04/28 02:30:52;;;;;;;34.35;17.37;;;;;;;4.89;50.33;100496.98;5081243;57;1138505;-73
2021/04/28 02:35:59;;;;;;;27.65;13.10;;;;;;;4.86;50.32;100492.39;5080004;57;1138833;-74
2021/04/28 02:41:07;;;;;;;36.43;15.60;;;;;;;4.83;50.54;100493.40;5061156;57;1138721;-74
2021/04/28 02:46:16;;;;;;;35.90;14.07;;;;;;;4.77;50.56;100487.17;5063540;57;1138584;-73
2021/04/28 02:51:31;;;;;;;31.83;12.67;;;;;;;4.75;50.70;100481.16;5063393;57;1138518;-73
2021/04/28 02:56:34;;;;;;;28.60;12.30;;;;;;;4.71;50.76;100473.11;5062740;57;1138683;-73
2021/04/28 03:01:42;;;;;;;41.38;14.74;;;;;;;4.71;50.87;100478.81;5082402;57;1138635;-75
2021/04/28 03:06:49;;;;;;;31.33;14.35;;;;;;;4.69;50.87;100481.52;5040203;57;1139023;-74
2021/04/28 03:11:55;;;;;;;24.88;11.16;;;;;;;4.69;50.92;100476.73;5063083;57;1138608;-74
2021/04/28 03:17:02;;;;;;;22.00;10.50;;;;;;;4.66;50.99;100469.03;5063456;57;1138344;-74
2021/04/28 03:22:08;;;;;;;22.67;10.87;;;;;;;4.62;50.97;100474.05;5063410;57;1138420;-72
2021/04/28 03:27:16;;;;;;;30.67;12.77;;;;;;;4.57;51.10;100467.31;5063614;57;1138468;-74
2021/04/28 03:32:23;;;;;;;23.27;11.65;;;;;;;4.53;51.11;100461.84;5061267;57;1138539;-74
2021/04/28 03:37:34;;;;;;;27.00;10.77;;;;;;;4.49;51.20;100466.01;5062481;57;1138789;-74
2021/04/28 03:42:40;;;;;;;24.17;9.70;;;;;;;4.45;51.27;100475.80;5095381;57;1138910;-72
2021/04/28 03:47:46;;;;;;;26.55;10.68;;;;;;;4.43;51.36;100471.59;5095778;57;1137887;-73
2021/04/28 03:52:52;;;;;;;30.97;10.00;;;;;;;4.43;51.46;100463.73;5095414;57;1138765;-72
2021/04/28 03:58:11;;;;;;;35.13;11.13;;;;;;;4.38;51.49;100470.52;4927578;59;1138955;-72
2021/04/28 04:03:18;;;;;;;25.40;10.17;;;;;;;4.34;51.62;100471.59;4928203;59;1138701;-72
2021/04/28 04:08:41;;;;;;;29.13;11.50;;;;;;;4.34;51.73;100466.82;4938830;58;1138744;-72
2021/04/28 04:13:48;;;;;;;36.87;12.87;;;;;;;4.34;51.91;100473.37;4924053;58;1138713;-72
2021/04/28 04:18:54;;;;;;;24.27;10.60;;;;;;;4.30;52.08;100474.45;4952046;58;1138623;-72
2021/04/28 04:24:00;;;;;;;30.90;11.00;;;;;;;4.25;52.25;100477.33;4960564;58;1138617;-71
2021/04/28 04:29:24;;;;;;;;;;;;;;;4.21;52.47;100475.33;4963191;58;1138905;-71
2021/04/28 04:34:34;;;;;;;29.27;11.63;;;;;;;4.21;52.53;100474.48;5054407;56;971896;-71
2021/04/28 04:39:57;;;;;;;32.42;12.70;;;;;;;4.23;52.81;100476.55;5106105;56;1136623;-71
2021/04/28 04:45:06;;;;;;;23.23;9.93;;;;;;;4.23;52.75;100473.94;5017763;57;1138988;-72
2021/04/28 04:50:12;;;;;;;85.53;35.13;;;;;;;4.28;52.93;100475.02;4992159;57;1136689;-72
2021/04/28 04:55:18;;;;;;;27.43;13.27;;;;;;;4.31;52.92;100474.83;4993088;57;1138541;-71
2021/04/28 05:00:25;;;;;;;28.77;12.90;;;;;;;4.35;53.00;100470.67;5047688;57;1138854;-74
2021/04/28 05:05:30;;;;;;;26.90;12.87;;;;;;;4.40;52.95;100471.75;5078494;57;1138399;-74
2021/04/28 05:10:42;;;;;;;26.07;12.20;;;;;;;4.45;53.23;100470.55;5064260;57;1138750;-72
2021/04/28 05:15:44;;;;;;;20.30;9.53;;;;;;;4.53;53.13;100472.78;5044531;57;1138869;-73
2021/04/28 05:20:49;;;;;;;27.15;9.98;;;;;;;4.63;52.99;100471.35;5008602;57;1136772;-71
2021/04/28 05:25:55;;;;;;;28.98;11.45;;;;;;;4.72;53.06;100466.09;5078734;57;1136704;-71
2021/04/28 05:31:00;;;;;;;19.23;9.73;;;;;;;4.85;52.97;100469.27;5053480;57;1138886;-73
2021/04/28 05:36:07;;;;;;;23.57;9.93;;;;;;;4.98;52.92;100469.44;5042093;57;1136976;-72
2021/04/28 05:41:13;;;;;;;24.05;11.40;;;;;;;5.11;53.03;100470.45;5080625;57;1136700;-71
2021/04/28 05:46:18;;;;;;;21.87;9.37;;;;;;;5.28;53.00;100471.66;5094170;57;1139016;-74
2021/04/28 05:51:24;;;;;;;19.55;8.93;;;;;;;5.43;52.61;100482.20;5094839;57;1136845;-73
2021/04/28 05:56:30;;;;;;;19.33;10.23;;;;;;;5.57;52.54;100479.64;5094435;57;1136414;-74
2021/04/28 06:01:36;;;;;;;27.77;11.67;;;;;;;5.76;52.73;100487.30;5094563;57;1138977;-73
2021/04/28 06:06:42;;;;;;;17.93;10.70;;;;;;;5.96;52.62;100470.77;5094416;57;1138690;-73
2021/04/28 06:11:47;;;;;;;17.20;8.90;;;;;;;6.16;51.60;100474.00;5053426;57;1138792;-74
2021/04/28 06:16:53;;;;;;;21.20;10.23;;;;;;;6.33;51.15;100468.11;5095067;56;1136735;-73
2021/04/28 06:22:00;;;;;;;21.57;10.75;;;;;;;6.53;51.54;100455.07;5094800;56;1139134;-75
2021/04/28 06:27:07;;;;;;;20.77;9.93;;;;;;;6.73;51.04;100452.50;5094597;56;1138818;-75
2021/04/28 06:32:12;;;;;;;21.30;10.60;;;;;;;6.94;50.64;100458.20;5095327;56;1136691;-72
2021/04/28 06:37:18;;;;;;;18.67;10.20;;;;;;;7.15;50.63;100455.52;5094753;56;1138760;-72
2021/04/28 06:42:24;;;;;;;23.27;10.50;;;;;;;7.35;50.02;100460.31;5092959;56;1138539;-72
2021/04/28 06:47:30;;;;;;;17.23;9.43;;;;;;;7.55;49.63;100452.91;5061675;57;1138716;-72
2021/04/28 06:52:35;;;;;;;14.93;8.93;;;;;;;7.75;48.95;100453.75;5059969;57;1136654;-72
2021/04/28 06:57:41;;;;;;;16.53;9.30;;;;;;;8.17;47.12;100430.71;5058759;57;1136684;-71
2021/04/28 07:02:46;;;;;;;23.87;7.13;;;;;;;8.17;47.12;100430.71;5059696;57;1142410;-72
2021/04/28 07:07:56;;;;;;;17.17;9.15;;;;;;;8.38;46.49;100438.48;4898342;59;1136731;-72
2021/04/28 07:13:04;;;;;;;19.52;9.45;;;;;;;8.60;46.45;100441.28;5028857;58;1138387;-73
2021/04/28 07:18:09;;;;;;;18.77;10.07;;;;;;;8.80;45.08;100442.52;4898040;59;1136746;-74
2021/04/28 07:23:15;;;;;;;21.00;9.23;;;;;;;9.02;45.26;100434.73;5029176;57;1138575;-73
2021/04/28 07:28:21;;;;;;;22.20;9.23;;;;;;;9.25;43.76;100434.86;5027809;58;1136494;-73
2021/04/28 07:33:26;;;;;;;15.60;8.27;;;;;;;9.43;44.02;100430.39;4898635;59;1136790;-73
2021/04/28 07:38:32;;;;;;;24.83;10.63;;;;;;;9.60;42.56;100433.58;5029212;57;1136638;-73
2021/04/28 07:43:38;;;;;;;14.43;7.97;;;;;;;9.71;42.18;100421.25;5018929;57;1140686;-73
2021/04/28 07:48:44;;;;;;;14.70;8.80;;;;;;;9.91;43.37;100418.42;4962340;57;1138761;-72
2021/04/28 07:53:50;;;;;;;18.83;8.87;;;;;;;10.20;41.83;100414.89;4984451;57;1138900;-72
2021/04/28 07:58:56;;;;;;;14.50;8.17;;;;;;;10.39;41.45;100412.47;5039782;56;1140759;-73
2021/04/28 08:04:07;;;;;;;28.47;10.67;;;;;;;10.62;41.28;100402.73;5040790;56;1140945;-72
2021/04/28 08:09:09;;;;;;;21.97;9.20;;;;;;;10.82;41.23;100405.11;4983980;57;1142913;-71
2021/04/28 08:14:15;;;;;;;19.23;9.08;;;;;;;11.09;40.94;100399.38;4986410;57;1140778;-70
2021/04/28 08:19:20;;;;;;;10.43;5.97;;;;;;;11.29;40.97;100390.66;5038093;56;1140817;-69
2021/04/28 08:24:26;;;;;;;16.27;7.23;;;;;;;11.43;37.05;100389.52;5038784;56;1140915;-71
2021/04/28 08:29:32;;;;;;;12.10;7.37;;;;;;;11.52;38.80;100387.41;5040423;56;1140786;-73
2021/04/28 08:34:38;;;;;;;18.97;9.83;;;;;;;11.67;38.13;100379.50;4886227;57;1140620;-71
2021/04/28 08:39:44;;;;;;;12.40;7.63;;;;;;;11.88;37.85;100376.88;4985453;57;1140755;-73
2021/04/28 08:44:50;;;;;;;16.37;7.67;;;;;;;12.07;35.93;100380.13;4987246;57;1140859;-73
2021/04/28 08:49:55;;;;;;;17.85;7.55;;;;;;;12.21;37.98;100370.02;4987029;57;1140759;-73
2021/04/28 08:55:01;;;;;;;11.53;6.92;;;;;;;12.37;35.70;100380.61;5040610;56;1141213;-73
2021/04/28 09:00:09;;;;;;;18.83;8.70;;;;;;;12.44;36.76;100359.20;4990990;57;1140865;-72
2021/04/28 09:05:15;;;;;;;8.75;5.37;;;;;;;12.63;33.47;100354.80;5040413;56;1141105;-72
2021/04/28 09:10:25;;;;;;;16.97;7.67;;;;;;;12.69;31.81;100341.45;5043106;56;1138753;-72
2021/04/28 09:15:40;;;;;;;18.00;5.97;;;;;;;12.76;32.48;100347.06;5040398;56;1141059;-73
2021/04/28 09:20:54;;;;;;;11.60;6.60;;;;;;;12.81;30.74;100334.23;4986351;57;1140956;-74
2021/04/28 09:26:18;;;;;;;28.67;7.70;;;;;;;12.90;32.07;100342.19;4925603;57;1140902;-74
2021/04/28 09:31:44;;;;;;;;;;;;;;;13.09;30.97;100340.53;4834098;59;1140959;-74
2021/04/28 09:36:54;;;;;;;12.30;6.60;;;;;;;13.08;30.89;100334.87;4914333;59;976080;-74
2021/04/28 09:42:00;;;;;;;7.65;5.47;;;;;;;13.18;30.91;100316.66;4794960;59;1138656;-74
2021/04/28 09:47:21;;;;;;;8.55;5.40;;;;;;;13.34;30.73;100315.59;4995039;57;1138973;-78
2021/04/28 09:52:40;;;;;;;12.13;5.37;;;;;;;13.51;30.30;100319.83;5009776;56;1138971;-74
2021/04/28 09:57:49;;;;;;;14.60;6.00;;;;;;;13.62;30.95;100315.67;5039333;56;1141262;-75
2021/04/28 10:03:04;;;;;;;15.30;6.05;;;;;;;13.70;31.42;100294.55;5037060;56;1140932;-75
2021/04/28 10:08:20;;;;;;;10.60;5.97;;;;;;;13.77;30.12;100289.48;5038183;56;1140593;-75
2021/04/28 10:13:26;;;;;;;9.43;6.57;;;;;;;13.91;29.49;100283.69;5038302;56;1141102;-75
2021/04/28 10:18:33;;;;;;;12.40;5.63;;;;;;;14.02;30.27;100273.73;5039943;56;1138931;-76
2021/04/28 10:23:39;;;;;;;8.80;4.63;;;;;;;14.06;29.88;100271.09;5038208;56;1140878;-74
2021/04/28 10:28:45;;;;;;;14.97;5.77;;;;;;;14.17;28.70;100270.09;5039665;56;1138686;-74
2021/04/28 10:33:51;;;;;;;11.23;5.53;;;;;;;14.26;29.47;100265.69;5039137;56;1147387;-75
2021/04/28 10:38:57;;;;;;;8.15;5.80;;;;;;;14.38;29.78;100263.16;5039805;56;1140972;-75
2021/04/28 10:44:02;;;;;;;6.78;5.17;;;;;;;14.53;30.55;100248.38;5040157;56;1138685;-75
2021/04/28 10:49:20;;;;;;;7.17;5.60;;;;;;;14.73;29.97;100243.76;5039436;56;1138685;-73
2021/04/28 10:54:29;;;;;;;8.93;5.10;;;;;;;14.89;29.36;100237.25;4869103;59;1138695;-74
2021/04/28 10:59:45;;;;;;;9.20;5.07;;;;;;;15.04;29.59;100230.38;4866668;59;1138789;-73
2021/04/28 11:04:48;;;;;;;9.38;5.25;;;;;;;15.11;29.40;100231.45;5002131;57;1138741;-73
2021/04/28 11:09:53;;;;;;;9.90;5.27;;;;;;;15.24;29.05;100232.87;5005230;57;1138995;-73
2021/04/28 11:14:59;;;;;;;10.63;5.40;;;;;;;15.23;27.74;100220.03;5004229;57;1138628;-72
2021/04/28 11:20:22;;;;;;;15.72;6.08;;;;;;;15.28;29.86;100211.06;5007379;57;1140937;-74
2021/04/28 11:25:28;;;;;;;10.93;5.47;;;;;;;15.46;29.71;100214.51;5004012;57;1140880;-73
2021/04/28 11:30:44;;;;;;;9.63;5.53;;;;;;;15.73;30.15;100200.70;5002050;57;1140851;-73
2021/04/28 11:36:02;;;;;;;10.50;5.03;;;;;;;15.89;28.93;100199.41;4991312;57;1138902;-73
2021/04/28 11:41:23;;;;;;;6.65;4.45;;;;;;;15.92;28.99;100195.09;5008847;57;1141046;-71
2021/04/28 11:46:32;;;;;;;7.43;5.10;;;;;;;16.05;28.31;100191.47;5006476;57;1139143;-71
2021/04/28 11:51:38;;;;;;;13.60;5.10;;;;;;;15.89;30.10;100184.74;5005407;57;1138998;-72
2021/04/28 11:56:48;;;;;;;6.70;5.10;;;;;;;16.04;28.68;100187.13;5004430;57;1140888;-72
2021/04/28 12:01:58;;;;;;;10.30;5.50;;;;;;;16.16;30.02;100169.84;5001852;57;1139020;-71
2021/04/28 12:07:07;;;;;;;10.08;5.90;;;;;;;16.42;28.42;100175.05;5006957;57;1140622;-72
2021/04/28 12:12:33;;;;;;;9.07;5.40;;;;;;;16.60;28.50;100159.38;5016052;58;1140782;-73
2021/04/28 12:17:45;;;;;;;7.16;5.28;;;;;;;16.85;28.70;100147.22;4992761;57;1138611;-73
2021/04/28 12:22:51;;;;;;;14.03;5.53;;;;;;;17.02;27.55;100148.53;5035463;57;1148739;-74
2021/04/28 12:27:57;;;;;;;11.68;6.08;;;;;;;16.92;28.08;100144.72;5033935;57;1140897;-73
2021/04/28 12:33:03;;;;;;;8.53;6.03;;;;;;;16.65;25.80;100141.87;5027919;57;1140415;-73
2021/04/28 12:38:17;;;;;;;10.35;5.15;;;;;;;16.45;27.53;100141.86;5040125;57;1138298;-73
2021/04/28 12:43:38;;;;;;;16.03;7.03;;;;;;;16.33;27.57;100133.84;5028851;57;1140722;-74
2021/04/28 12:48:59;;;;;;;15.40;5.70;;;;;;;16.24;27.43;100125.48;5031059;57;1140538;-73
2021/04/28 12:54:05;;;;;;;16.20;5.95;;;;;;;16.11;27.12;100126.80;4954622;57;1140857;-73
2021/04/28 12:59:24;;;;;;;10.60;5.50;;;;;;;16.05;28.26;100118.60;4966323;57;1140521;-75
2021/04/28 13:04:31;;;;;;;17.73;6.57;;;;;;;16.10;27.99;100110.95;4970019;57;1140392;-77
2021/04/28 13:09:37;;;;;;;7.03;5.43;;;;;;;16.22;28.83;100106.13;4970250;57;1140584;-77
2021/04/28 13:14:52;;;;;;;14.83;5.07;;;;;;;16.27;28.01;100105.98;5009002;57;1138246;-75
2021/04/28 13:20:17;;;;;;;10.80;5.53;;;;;;;16.20;27.80;100106.28;5012714;57;1140825;-77
2021/04/28 13:25:22;;;;;;;10.00;5.70;;;;;;;16.11;28.39;100095.28;5012528;57;1140650;-77
2021/04/28 13:30:28;;;;;;;15.30;6.13;;;;;;;16.06;28.39;100092.27;5012938;57;1140606;-77
2021/04/28 13:35:35;;;;;;;16.17;5.40;;;;;;;15.98;28.39;100090.94;5012670;57;1140630;-74
2021/04/28 13:40:47;;;;;;;11.50;5.00;;;;;;;15.95;28.73;100084.59;5012954;57;1140672;-75
2021/04/28 13:45:52;;;;;;;11.90;6.77;;;;;;;15.94;28.89;100082.92;5012856;57;1140748;-77
2021/04/28 13:50:58;;;;;;;14.25;6.42;;;;;;;15.96;29.43;100069.76;5012229;57;1140828;-75
2021/04/28 13:56:06;;;;;;;17.35;7.85;;;;;;;16.01;29.86;100068.77;5045522;57;1140659;-76
2021/04/28 14:01:11;;;;;;;11.30;6.27;;;;;;;15.99;28.76;100056.09;5083124;57;1140784;-76
2021/04/28 14:06:19;;;;;;;17.87;8.43;;;;;;;15.97;29.44;100058.09;5082905;57;1140529;-76
2021/04/28 14:11:25;;;;;;;19.37;11.93;;;;;;;15.95;29.51;100057.91;5082979;57;1140440;-78
2021/04/28 14:16:30;;;;;;;14.47;9.20;;;;;;;15.93;29.90;100046.08;5082841;57;1142453;-78
2021/04/28 14:21:36;;;;;;;15.93;8.50;;;;;;;15.93;30.05;100050.08;5083081;57;1140562;-76
2021/04/28 14:26:42;;;;;;;9.40;6.33;;;;;;;15.86;30.38;100041.08;5083229;57;1140319;-75
2021/04/28 14:31:48;;;;;;;269.43;133.80;;;;;;;15.85;30.85;100041.24;5083567;57;1138217;-74
2021/04/28 14:36:54;;;;;;;39.00;22.40;;;;;;;15.81;31.03;100038.06;5062971;57;1146915;-77
2021/04/28 14:42:00;;;;;;;13.15;8.28;;;;;;;15.80;31.06;100037.73;5082988;57;1142702;-76
2021/04/28 14:47:06;;;;;;;16.40;10.13;;;;;;;15.78;31.17;100032.55;5083297;57;1140748;-77
2021/04/28 14:52:11;;;;;;;23.03;7.83;;;;;;;15.80;31.94;100029.23;5083132;57;1151445;-77
2021/04/28 14:57:17;;;;;;;21.07;8.13;;;;;;;15.82;31.77;100029.06;5083098;57;1141322;-76
2021/04/28 15:02:23;;;;;;;33.93;14.90;;;;;;;15.77;31.55;100022.88;5082967;57;1141161;-74
2021/04/28 15:07:28;;;;;;;26.90;14.00;;;;;;;15.71;31.82;100024.89;5082815;57;1143189;-76
2021/04/28 15:12:35;;;;;;;81.03;11.23;;;;;;;15.69;32.11;100014.89;5082660;57;1142942;-78
2021/04/28 15:17:40;;;;;;;24.40;12.37;;;;;;;15.70;32.25;100014.39;5082689;57;1142654;-75
2021/04/28 15:22:47;;;;;;;17.17;9.27;;;;;;;15.67;32.22;100014.22;5082736;57;1142776;-75
2021/04/28 15:27:53;;;;;;;46.63;19.20;;;;;;;15.62;32.37;100008.53;5102587;57;1140654;-72
2021/04/28 15:33:01;;;;;;;18.07;9.77;;;;;;;15.63;32.46;100016.03;5016374;57;1142828;-73
2021/04/28 15:38:07;;;;;;;15.10;8.83;;;;;;;15.59;32.72;100010.19;5084519;56;1140683;-72
2021/04/28 15:43:13;;;;;;;15.70;9.60;;;;;;;15.58;32.83;99999.22;5084457;56;1140595;-72
2021/04/28 15:48:18;;;;;;;16.87;9.03;;;;;;;15.54;32.69;99997.84;5084444;56;1138590;-74
2021/04/28 15:53:24;;;;;;;16.93;8.47;;;;;;;15.52;33.24;99994.99;5084193;57;1138608;-73
2021/04/28 15:58:30;;;;;;;24.40;10.17;;;;;;;15.52;33.42;99993.16;5081376;57;1138517;-73
2021/04/28 16:03:36;;;;;;;24.37;11.80;;;;;;;15.51;33.39;99986.66;5071886;57;1141139;-73
2021/04/28 16:08:42;;;;;;;19.50;8.80;;;;;;;15.46;33.38;99978.64;5071992;57;1140915;-73
2021/04/28 16:13:47;;;;;;;17.00;8.97;;;;;;;15.44;33.68;99977.97;5072296;57;1138757;-73
2021/04/28 16:18:53;;;;;;;20.57;10.13;;;;;;;15.42;33.25;99968.00;5072363;56;1138804;-74
2021/04/28 16:24:00;;;;;;;22.50;10.40;;;;;;;15.39;33.42;99968.32;5071902;57;1140875;-74
2021/04/28 16:29:06;;;;;;;27.07;15.88;;;;;;;15.37;33.85;99962.31;5074000;57;1141117;-74
2021/04/28 16:34:11;;;;;;;22.98;12.33;;;;;;;15.36;34.28;99959.31;5073798;57;1140977;-73
2021/04/28 16:39:17;;;;;;;18.63;8.00;;;;;;;15.31;34.14;99952.30;5073516;57;1141022;-72
2021/04/28 16:44:23;;;;;;;21.33;9.37;;;;;;;15.29;34.08;99944.96;5073712;57;1139021;-72
2021/04/28 16:49:29;;;;;;;23.17;11.40;;;;;;;15.28;34.14;99947.78;5074352;57;1138762;-73
2021/04/28 16:54:35;;;;;;;32.30;15.93;;;;;;;15.26;34.44;99946.64;5074277;57;1140878;-73
2021/04/28 16:59:41;;;;;;;39.83;19.63;;;;;;;15.22;34.77;99951.95;5074385;57;1141101;-73
2021/04/28 17:04:47;;;;;;;28.73;14.87;;;;;;;15.16;35.18;99946.43;5073726;57;1140870;-72
2021/04/28 17:09:52;;;;;;;33.30;14.97;;;;;;;15.11;35.43;99935.79;5074063;57;1140855;-72
2021/04/28 17:14:58;;;;;;;37.30;14.23;;;;;;;15.09;35.54;99943.10;5074297;57;1140907;-73
2021/04/28 17:20:05;;;;;;;35.08;15.25;;;;;;;15.05;35.40;99939.58;5074311;57;1140857;-73
2021/04/28 17:25:12;;;;;;;47.88;22.48;;;;;;;14.99;35.62;99942.38;5073929;57;1140877;-72
2021/04/28 17:30:18;;;;;;;32.20;15.90;;;;;;;14.93;35.83;99932.39;5073397;57;1141187;-72
2021/04/28 17:35:26;;;;;;;27.90;12.37;;;;;;;14.88;35.95;99933.37;5074364;57;1140822;-72
2021/04/28 17:40:32;;;;;;;29.87;12.97;;;;;;;14.83;36.24;99926.84;5073982;57;1140750;-72
2021/04/28 17:45:40;;;;;;;33.87;15.57;;;;;;;14.77;36.51;99929.67;5073573;57;1140828;-72
2021/04/28 17:50:45;;;;;;;40.67;23.03;;;;;;;14.66;36.69;99930.80;5074063;57;1140837;-73
2021/04/28 17:55:51;;;;;;;22.07;13.73;;;;;;;14.58;36.93;99937.39;5074020;57;1140861;-73
2021/04/28 18:00:57;;;;;;;25.08;15.25;;;;;;;14.45;37.22;99934.83;5076199;57;1145062;-74
2021/04/28 18:06:03;;;;;;;16.97;9.50;;;;;;;14.34;37.54;99930.09;5097691;57;1140813;-73
2021/04/28 18:11:08;;;;;;;19.60;10.18;;;;;;;14.16;37.90;99929.31;5098633;57;1138792;-73
2021/04/28 18:16:15;;;;;;;36.53;18.00;;;;;;;14.02;38.24;99929.88;5098254;57;1140892;-73
2021/04/28 18:21:21;;;;;;;45.23;21.27;;;;;;;13.94;38.46;99928.48;5098257;57;1141084;-73
2021/04/28 18:26:27;;;;;;;67.87;33.67;;;;;;;13.83;38.70;99934.05;5097893;57;1140913;-72
2021/04/28 18:31:34;;;;;;;49.97;23.57;;;;;;;13.70;39.03;99932.63;5098401;57;1140971;-72
2021/04/28 18:36:40;;;;;;;46.60;22.73;;;;;;;13.59;39.21;99933.36;5098254;57;1140908;-74
2021/04/28 18:41:46;;;;;;;21.90;13.80;;;;;;;13.50;39.33;99935.09;5095796;57;1140969;-73
2021/04/28 18:46:53;;;;;;;37.85;19.10;;;;;;;13.46;39.29;99943.02;5095817;57;1140876;-75
2021/04/28 18:51:59;;;;;;;28.90;13.50;;;;;;;13.44;39.10;99934.88;5097270;57;1143691;-76
2021/04/28 18:57:05;;;;;;;33.65;15.05;;;;;;;13.41;38.77;99936.50;5105608;56;1141228;-73
2021/04/28 19:02:11;;;;;;;30.52;13.58;;;;;;;13.38;38.58;99938.47;5122930;56;1140870;-72
2021/04/28 19:07:17;;;;;;;20.67;11.70;;;;;;;13.36;38.52;99933.80;5099348;57;1141009;-75
2021/04/28 19:12:23;;;;;;;25.33;11.30;;;;;;;13.34;38.31;99936.26;5086257;57;1140609;-70
2021/04/28 19:17:29;;;;;;;18.20;8.90;;;;;;;13.29;38.11;99930.06;5085997;57;1140752;-72
2021/04/28 19:22:35;;;;;;;25.23;10.43;;;;;;;13.22;37.69;99926.36;4922729;58;1138479;-72
2021/04/28 19:27:42;;;;;;;24.07;13.63;;;;;;;13.16;37.99;99926.94;5086058;57;1140569;-74
2021/04/28 19:32:49;;;;;;;32.23;13.20;;;;;;;13.13;37.80;99921.09;5085959;57;1140594;-72
2021/04/28 19:37:54;;;;;;;23.30;11.53;;;;;;;13.08;37.76;99922.02;5085979;57;1140542;-71
2021/04/28 19:43:00;;;;;;;21.67;10.70;;;;;;;13.02;37.92;99914.15;5066174;57;1140554;-74
2021/04/28 19:48:06;;;;;;;22.93;10.23;;;;;;;12.94;38.05;99906.95;5086148;57;1140882;-72
2021/04/28 19:53:11;;;;;;;21.90;9.85;;;;;;;12.90;37.99;99916.19;5086022;57;1141004;-72
2021/04/28 19:58:17;;;;;;;17.30;10.10;;;;;;;12.83;38.16;99915.09;4922732;58;1138858;-69
2021/04/28 20:03:26;;;;;;;22.83;10.73;;;;;;;12.77;38.30;99917.52;5085897;57;1140383;-71
2021/04/28 20:08:32;;;;;;;28.17;10.80;;;;;;;12.74;38.34;99913.34;5082648;57;1140443;-71
2021/04/28 20:13:38;;;;;;;23.53;11.33;;;;;;;12.70;38.45;99906.64;5082807;57;1140575;-74
2021/04/28 20:18:44;;;;;;;24.87;10.83;;;;;;;12.60;38.49;99905.38;5094911;57;1140383;-71
2021/04/28 20:23:49;;;;;;;25.57;11.90;;;;;;;12.53;38.63;99900.78;5092320;57;1140837;-74
2021/04/28 20:28:56;;;;;;;22.70;12.13;;;;;;;12.46;38.79;99899.23;5081753;57;1140342;-70
2021/04/28 20:34:02;;;;;;;30.77;13.43;;;;;;;12.41;38.90;99904.62;5081948;57;1140461;-71
2021/04/28 20:39:07;;;;;;;19.20;10.08;;;;;;;12.36;38.94;99904.23;5082103;57;1140735;-72
2021/04/28 20:44:13;;;;;;;30.70;12.18;;;;;;;12.28;39.12;99903.63;5082675;57;1140771;-72
2021/04/28 20:49:21;;;;;;;29.60;11.65;;;;;;;12.19;39.09;99906.66;5082877;57;1140690;-75
2021/04/28 20:54:26;;;;;;;25.67;11.03;;;;;;;12.15;39.18;99911.06;5082758;57;1140696;-73
2021/04/28 20:59:32;;;;;;;20.33;10.63;;;;;;;12.09;39.23;99910.30;5082533;57;1140578;-72
2021/04/28 21:04:37;;;;;;;14.80;7.80;;;;;;;12.01;39.37;99909.70;5082643;57;1140538;-74
2021/04/28 21:09:52;;;;;;;21.50;9.77;;;;;;;11.89;39.40;99906.88;5072784;57;1138522;-72
2021/04/28 21:14:53;;;;;;;22.30;9.07;;;;;;;11.82;39.54;99904.43;5070380;57;1138766;-71
2021/04/28 21:20:05;;;;;;;24.47;10.47;;;;;;;11.78;39.51;99913.63;5070484;57;1138670;-74
2021/04/28 21:25:10;;;;;;;20.95;9.15;;;;;;;11.70;39.47;99909.02;5069527;57;1140616;-72
2021/04/28 21:30:17;;;;;;;20.15;8.63;;;;;;;11.66;39.44;99908.95;5070585;57;1138710;-72
2021/04/28 21:35:23;;;;;;;18.25;8.40;;;;;;;11.61;39.44;99900.58;5070403;57;1138666;-72
2021/04/28 21:40:29;;;;;;;27.07;9.00;;;;;;;11.58;39.41;99910.16;5070439;57;1138724;-71
2021/04/28 21:45:34;;;;;;;17.80;7.23;;;;;;;11.55;39.15;99910.42;5070484;57;1138630;-74
2021/04/28 21:50:40;;;;;;;17.43;8.03;;;;;;;11.51;39.03;99899.76;5070559;57;1138580;-72
2021/04/28 21:55:47;;;;;;;17.83;8.07;;;;;;;11.47;38.91;99898.36;5070781;57;1138510;-75
2021/04/28 22:00:53;;;;;;;15.13;7.63;;;;;;;11.41;39.00;99894.96;5070858;57;1138257;-70
2021/04/28 22:05:59;;;;;;;15.63;7.07;;;;;;;11.36;38.46;99894.05;5070649;57;1138270;-71
2021/04/28 22:11:05;;;;;;;21.80;7.13;;;;;;;11.32;38.57;99884.70;5079791;57;1138445;-70
2021/04/28 22:16:10;;;;;;;12.58;6.83;;;;;;;11.28;38.38;99885.98;5082626;57;1138777;-71
2021/04/28 22:21:17;;;;;;;15.28;7.22;;;;;;;11.25;38.41;99879.14;5082739;57;1138795;-71
2021/04/28 22:26:22;;;;;;;18.20;7.03;;;;;;;11.23;38.43;99863.89;5082388;56;1138556;-73
2021/04/28 22:31:28;;;;;;;9.77;5.47;;;;;;;11.20;37.89;99865.48;5082424;57;1138604;-72
2021/04/28 22:36:33;;;;;;;11.73;6.20;;;;;;;11.20;37.39;99857.54;5082569;57;1136831;-69
2021/04/28 22:41:39;;;;;;;13.45;5.25;;;;;;;11.20;37.38;99852.25;5081918;57;1138500;-71
2021/04/28 22:46:45;;;;;;;13.77;6.70;;;;;;;11.20;37.13;99851.41;5082049;57;1138543;-74
2021/04/28 22:51:51;;;;;;;14.80;6.17;;;;;;;11.18;37.36;99842.28;5082059;57;1138517;-71
2021/04/28 22:56:57;;;;;;;15.73;6.73;;;;;;;11.18;37.09;99840.13;5082380;57;1138520;-71
2021/04/28 23:02:03;;;;;;;8.38;4.55;;;;;;;11.13;37.19;99837.08;5082528;57;1138629;-71
2021/04/28 23:07:08;;;;;;;9.08;5.35;;;;;;;11.07;36.93;99827.88;5082583;57;1136736;-71